Impacts METAR Board
IDs:

KFLL - Ft Lauderdale-Hollyw, FL, US

Updated at: 0400 UTC 17 Jul 2018
Potential Impact None Slight Moderate High
Time 16/16Z 16/17Z 16/18Z 16/19Z 16/20Z 16/21Z 16/22Z 16/23Z 17/00Z 17/01Z 17/02Z 17/03Z 17/04Z
Temp90 90 88 89 90 90 88 86 85 84 85 85 85
Dewpt78 78 76 75 74 74 76 75 76 75 75 76 76
Altim30.09 30.08 30.08 30.07 30.05 30.04 30.05 30.03 30.05 30.07 30.09 30.10 30.09
VIS10 10 10 10 10 10 10 10 10 10 10 10 10
CIG250 250 250 250 250 250 250 250 250 -- -- -- --
CoverBKNBKNOVCBKNBKNBKNBKNBKNBKNSCTFEWCLRFEW
FltCatVFRVFRVFRVFRVFRVFRVFRVFRVFRVFRVFRVFRVFR
WX--VCTSTS------VCTS------------
WDir1301201601401401401402202400210150160
WSpd11 14 11 6 9 13 12 7 4 0 3 4 4
WGst-- -- -- -- -- -- -- -- -- -- -- -- --
Raw hourly METARs
KFLL 161553Z 13011KT 10SM FEW030 SCT080 SCT150 BKN250 32/26 A3009 RMK AO2 SLP187 T03220256
KFLL 161653Z 12014KT 10SM VCTS FEW030 SCT150 BKN250 32/26 A3008 RMK AO2 LTG DSNT SW SLP185 CB DSNT SW MOV N T03220256
KFLL 161753Z 16011KT 10SM TS FEW030CB SCT150 OVC250 31/24 A3008 RMK AO2 LTG DSNT W-N TSB07 SLP185 FRQ LTGICCG SW AND NW TS SW AND NW MOV STNRY T03110244 10328 20283 55002
KFLL 161853Z COR 14006KT 10SM FEW035 FEW060 FEW150 BKN250 32/24 A3007 RMK AO2 LTG DSNT SW-N TSE31 SLP182 CB DSNT NW-N MOV NW TCU DSNT SW T03170239
KFLL 161953Z 14009KT 10SM FEW040 BKN250 32/23 A3005 RMK AO2 LTG DSNT SW SLP176 T03220233
KFLL 162053Z 14013KT 10SM FEW040 BKN250 32/23 A3004 RMK AO2 LTG DSNT SW SLP173 CB DSNT SW T03220233 56013
KFLL 162153Z 14012KT 10SM VCTS FEW035 FEW080 BKN250 31/24 A3005 RMK AO2 LTG DSNT SW-NW TSE26 SLP175 CB DSNT SW-NW MOV N T03110244
KFLL 162253Z 22007KT 10SM SCT036 SCT070 SCT200 BKN250 30/24 A3003 RMK AO2 LTG DSNT N AND NW SLP170 CB DSNT NW T03000239
KFLL 162353Z 24004KT 10SM FEW035 FEW180 BKN250 29/24 A3005 RMK AO2 SLP175 T02940244 10328 20289 53002
KFLL 170053Z 00000KT 10SM FEW035 FEW180 SCT250 29/24 A3007 RMK AO2 SLP182 OCNL LTGICCG DSNT W CB DSNT W T02890239
KFLL 170153Z 21003KT 10SM FEW030 FEW070 29/24 A3009 RMK AO2 SLP188 T02940239
KFLL 170253Z 15004KT 10SM CLR 29/24 A3010 RMK AO2 SLP191 T02940244 51016
KFLL 170353Z 16004KT 10SM FEW033 29/24 A3009 RMK AO2 SLP190 T02940244



Page loaded:  04:04 UTC  |   09:04 PM Pacific  |   10:04 PM Mountain  |   11:04 PM Central  |   12:04 AM Eastern

 

ADVISORIES

FORECASTS

FORECASTS

OBSERVATIONS

USER TOOLS

ABOUT US